sensor_id;sensor_type;location;lat;lon;timestamp;P1;durP1;ratioP1;P2;durP2;ratioP2
25715;SDS011;13573;50.936;4.328;2022-12-07T00:01:22;26.07;;;15.20;;
25715;SDS011;13573;50.936;4.328;2022-12-07T00:03:51;24.70;;;15.73;;
25715;SDS011;13573;50.936;4.328;2022-12-07T00:06:18;27.33;;;15.43;;
25715;SDS011;13573;50.936;4.328;2022-12-07T00:08:45;24.70;;;16.40;;
25715;SDS011;13573;50.936;4.328;2022-12-07T00:11:15;24.60;;;15.10;;
25715;SDS011;13573;50.936;4.328;2022-12-07T00:13:45;27.40;;;16.20;;
25715;SDS011;13573;50.936;4.328;2022-12-07T00:16:14;31.23;;;17.67;;
25715;SDS011;13573;50.936;4.328;2022-12-07T00:18:42;28.00;;;17.23;;
25715;SDS011;13573;50.936;4.328;2022-12-07T00:21:11;27.93;;;15.87;;
25715;SDS011;13573;50.936;4.328;2022-12-07T00:23:40;34.40;;;18.03;;
25715;SDS011;13573;50.936;4.328;2022-12-07T00:26:09;31.83;;;17.30;;
25715;SDS011;13573;50.936;4.328;2022-12-07T00:28:35;25.33;;;16.03;;
25715;SDS011;13573;50.936;4.328;2022-12-07T00:31:04;26.93;;;16.40;;
25715;SDS011;13573;50.936;4.328;2022-12-07T00:33:33;27.03;;;16.73;;
25715;SDS011;13573;50.936;4.328;2022-12-07T00:36:01;26.70;;;16.17;;
25715;SDS011;13573;50.936;4.328;2022-12-07T00:38:29;27.67;;;17.17;;
25715;SDS011;13573;50.936;4.328;2022-12-07T00:40:58;27.63;;;16.93;;
25715;SDS011;13573;50.936;4.328;2022-12-07T00:43:25;32.60;;;18.37;;
25715;SDS011;13573;50.936;4.328;2022-12-07T00:45:51;35.50;;;19.20;;
25715;SDS011;13573;50.936;4.328;2022-12-07T00:48:20;25.43;;;16.87;;
25715;SDS011;13573;50.936;4.328;2022-12-07T00:50:46;33.33;;;18.33;;
25715;SDS011;13573;50.936;4.328;2022-12-07T00:53:13;29.57;;;17.37;;
25715;SDS011;13573;50.936;4.328;2022-12-07T00:55:40;32.27;;;17.97;;
25715;SDS011;13573;50.936;4.328;2022-12-07T00:58:07;29.60;;;19.40;;
25715;SDS011;13573;50.936;4.328;2022-12-07T01:00:36;26.20;;;16.53;;
25715;SDS011;13573;50.936;4.328;2022-12-07T01:03:04;26.93;;;15.67;;
25715;SDS011;13573;50.936;4.328;2022-12-07T01:05:32;28.77;;;16.23;;
25715;SDS011;13573;50.936;4.328;2022-12-07T01:07:59;24.07;;;15.07;;
25715;SDS011;13573;50.936;4.328;2022-12-07T01:10:26;27.20;;;16.20;;
25715;SDS011;13573;50.936;4.328;2022-12-07T01:12:53;35.77;;;20.63;;
25715;SDS011;13573;50.936;4.328;2022-12-07T01:15:19;30.10;;;16.27;;
25715;SDS011;13573;50.936;4.328;2022-12-07T01:17:45;22.33;;;15.43;;
25715;SDS011;13573;50.936;4.328;2022-12-07T01:20:12;33.97;;;20.17;;
25715;SDS011;13573;50.936;4.328;2022-12-07T01:22:40;43.37;;;21.57;;
25715;SDS011;13573;50.936;4.328;2022-12-07T01:25:07;31.97;;;19.13;;
25715;SDS011;13573;50.936;4.328;2022-12-07T01:27:34;34.13;;;20.70;;
25715;SDS011;13573;50.936;4.328;2022-12-07T01:30:01;34.90;;;19.47;;
25715;SDS011;13573;50.936;4.328;2022-12-07T01:32:29;28.47;;;17.80;;
25715;SDS011;13573;50.936;4.328;2022-12-07T01:34:57;25.90;;;15.97;;
25715;SDS011;13573;50.936;4.328;2022-12-07T01:37:24;32.40;;;19.70;;
25715;SDS011;13573;50.936;4.328;2022-12-07T01:39:51;32.80;;;19.13;;
25715;SDS011;13573;50.936;4.328;2022-12-07T01:42:18;31.10;;;18.60;;
25715;SDS011;13573;50.936;4.328;2022-12-07T01:45:15;26.10;;;13.90;;
25715;SDS011;13573;50.936;4.328;2022-12-07T01:47:15;33.87;;;16.27;;
25715;SDS011;13573;50.936;4.328;2022-12-07T01:49:43;25.07;;;15.10;;
25715;SDS011;13573;50.936;4.328;2022-12-07T01:52:20;27.07;;;14.80;;
25715;SDS011;13573;50.936;4.328;2022-12-07T01:54:49;23.70;;;14.27;;
25715;SDS011;13573;50.936;4.328;2022-12-07T01:57:19;23.33;;;13.70;;
25715;SDS011;13573;50.936;4.328;2022-12-07T01:59:47;29.73;;;15.03;;
25715;SDS011;13573;50.936;4.328;2022-12-07T02:02:33;26.20;;;15.57;;
25715;SDS011;13573;50.936;4.328;2022-12-07T02:05:03;21.97;;;13.63;;
25715;SDS011;13573;50.936;4.328;2022-12-07T02:07:29;21.53;;;14.17;;
25715;SDS011;13573;50.936;4.328;2022-12-07T02:10:11;24.40;;;13.27;;
25715;SDS011;13573;50.936;4.328;2022-12-07T02:12:33;26.73;;;12.23;;
25715;SDS011;13573;50.936;4.328;2022-12-07T02:15:00;21.40;;;12.30;;
25715;SDS011;13573;50.936;4.328;2022-12-07T02:17:30;26.70;;;14.37;;
25715;SDS011;13573;50.936;4.328;2022-12-07T02:20:10;24.47;;;12.20;;
25715;SDS011;13573;50.936;4.328;2022-12-07T02:23:27;21.37;;;10.87;;
25715;SDS011;13573;50.936;4.328;2022-12-07T02:25:52;23.30;;;11.30;;
25715;SDS011;13573;50.936;4.328;2022-12-07T02:28:21;17.60;;;10.00;;
25715;SDS011;13573;50.936;4.328;2022-12-07T02:30:47;20.20;;;11.43;;
25715;SDS011;13573;50.936;4.328;2022-12-07T02:33:19;19.67;;;10.53;;
25715;SDS011;13573;50.936;4.328;2022-12-07T02:35:51;21.47;;;10.80;;
25715;SDS011;13573;50.936;4.328;2022-12-07T02:38:20;23.97;;;11.33;;
25715;SDS011;13573;50.936;4.328;2022-12-07T02:40:55;25.53;;;11.13;;
25715;SDS011;13573;50.936;4.328;2022-12-07T02:43:25;20.13;;;10.03;;
25715;SDS011;13573;50.936;4.328;2022-12-07T02:45:53;16.97;;;9.63;;
25715;SDS011;13573;50.936;4.328;2022-12-07T02:48:23;18.80;;;10.33;;
25715;SDS011;13573;50.936;4.328;2022-12-07T02:50:53;20.93;;;10.10;;
25715;SDS011;13573;50.936;4.328;2022-12-07T02:55:59;16.87;;;9.37;;
25715;SDS011;13573;50.936;4.328;2022-12-07T02:58:39;21.53;;;9.50;;
25715;SDS011;13573;50.936;4.328;2022-12-07T03:01:12;15.07;;;8.43;;
25715;SDS011;13573;50.936;4.328;2022-12-07T03:03:40;14.60;;;8.47;;
25715;SDS011;13573;50.936;4.328;2022-12-07T03:06:11;15.07;;;7.80;;
25715;SDS011;13573;50.936;4.328;2022-12-07T03:08:44;16.87;;;8.57;;
25715;SDS011;13573;50.936;4.328;2022-12-07T03:11:13;15.67;;;8.43;;
25715;SDS011;13573;50.936;4.328;2022-12-07T03:13:50;15.47;;;9.23;;
25715;SDS011;13573;50.936;4.328;2022-12-07T03:16:19;15.47;;;7.43;;
25715;SDS011;13573;50.936;4.328;2022-12-07T03:18:50;16.77;;;9.33;;
25715;SDS011;13573;50.936;4.328;2022-12-07T03:21:25;18.07;;;8.17;;
25715;SDS011;13573;50.936;4.328;2022-12-07T03:23:54;15.77;;;8.30;;
25715;SDS011;13573;50.936;4.328;2022-12-07T03:26:21;16.83;;;9.67;;
25715;SDS011;13573;50.936;4.328;2022-12-07T03:28:52;17.03;;;8.90;;
25715;SDS011;13573;50.936;4.328;2022-12-07T03:31:23;18.43;;;9.47;;
25715;SDS011;13573;50.936;4.328;2022-12-07T03:33:56;16.20;;;8.83;;
25715;SDS011;13573;50.936;4.328;2022-12-07T03:36:25;13.50;;;9.23;;
25715;SDS011;13573;50.936;4.328;2022-12-07T03:38:55;22.87;;;11.13;;
25715;SDS011;13573;50.936;4.328;2022-12-07T03:41:23;12.67;;;8.53;;
25715;SDS011;13573;50.936;4.328;2022-12-07T03:43:53;21.27;;;9.90;;
25715;SDS011;13573;50.936;4.328;2022-12-07T03:46:32;18.20;;;8.43;;
25715;SDS011;13573;50.936;4.328;2022-12-07T03:49:08;20.70;;;9.20;;
25715;SDS011;13573;50.936;4.328;2022-12-07T03:51:49;20.70;;;10.40;;
25715;SDS011;13573;50.936;4.328;2022-12-07T03:54:19;23.13;;;10.70;;
25715;SDS011;13573;50.936;4.328;2022-12-07T03:56:51;15.20;;;8.13;;
25715;SDS011;13573;50.936;4.328;2022-12-07T03:59:20;16.00;;;8.77;;
25715;SDS011;13573;50.936;4.328;2022-12-07T04:01:52;15.90;;;9.27;;
25715;SDS011;13573;50.936;4.328;2022-12-07T04:04:19;21.17;;;10.23;;
25715;SDS011;13573;50.936;4.328;2022-12-07T04:06:46;25.37;;;11.70;;
25715;SDS011;13573;50.936;4.328;2022-12-07T04:09:13;30.87;;;12.73;;
25715;SDS011;13573;50.936;4.328;2022-12-07T04:11:40;27.37;;;12.87;;
25715;SDS011;13573;50.936;4.328;2022-12-07T04:14:06;19.47;;;11.63;;
25715;SDS011;13573;50.936;4.328;2022-12-07T04:16:39;29.70;;;16.00;;
25715;SDS011;13573;50.936;4.328;2022-12-07T04:19:05;22.53;;;11.37;;
25715;SDS011;13573;50.936;4.328;2022-12-07T04:21:32;19.17;;;11.30;;
25715;SDS011;13573;50.936;4.328;2022-12-07T04:23:58;28.40;;;13.90;;
25715;SDS011;13573;50.936;4.328;2022-12-07T04:26:25;24.50;;;15.13;;
25715;SDS011;13573;50.936;4.328;2022-12-07T04:28:52;31.23;;;16.20;;
25715;SDS011;13573;50.936;4.328;2022-12-07T04:31:19;27.80;;;14.87;;
25715;SDS011;13573;50.936;4.328;2022-12-07T04:33:45;20.43;;;11.40;;
25715;SDS011;13573;50.936;4.328;2022-12-07T04:36:11;23.40;;;13.53;;
25715;SDS011;13573;50.936;4.328;2022-12-07T04:38:38;20.23;;;13.00;;
25715;SDS011;13573;50.936;4.328;2022-12-07T04:41:05;36.33;;;17.97;;
25715;SDS011;13573;50.936;4.328;2022-12-07T04:43:33;30.63;;;15.57;;
25715;SDS011;13573;50.936;4.328;2022-12-07T04:46:00;27.30;;;14.33;;
25715;SDS011;13573;50.936;4.328;2022-12-07T04:48:27;25.10;;;13.93;;
25715;SDS011;13573;50.936;4.328;2022-12-07T04:50:53;28.80;;;15.33;;
25715;SDS011;13573;50.936;4.328;2022-12-07T04:53:20;31.77;;;15.63;;
25715;SDS011;13573;50.936;4.328;2022-12-07T04:55:47;29.30;;;16.20;;
25715;SDS011;13573;50.936;4.328;2022-12-07T04:58:14;47.00;;;21.23;;
25715;SDS011;13573;50.936;4.328;2022-12-07T05:00:40;25.70;;;15.77;;
25715;SDS011;13573;50.936;4.328;2022-12-07T05:03:07;27.70;;;14.90;;
25715;SDS011;13573;50.936;4.328;2022-12-07T05:05:34;35.80;;;19.60;;
25715;SDS011;13573;50.936;4.328;2022-12-07T05:08:00;37.60;;;21.00;;
25715;SDS011;13573;50.936;4.328;2022-12-07T05:10:27;23.23;;;14.57;;
25715;SDS011;13573;50.936;4.328;2022-12-07T05:12:54;23.60;;;15.13;;
25715;SDS011;13573;50.936;4.328;2022-12-07T05:15:20;27.00;;;16.37;;
25715;SDS011;13573;50.936;4.328;2022-12-07T05:17:47;25.43;;;16.00;;
25715;SDS011;13573;50.936;4.328;2022-12-07T05:20:14;27.57;;;15.73;;
25715;SDS011;13573;50.936;4.328;2022-12-07T05:22:41;24.67;;;15.30;;
25715;SDS011;13573;50.936;4.328;2022-12-07T05:25:07;38.60;;;18.97;;
25715;SDS011;13573;50.936;4.328;2022-12-07T05:27:34;24.93;;;14.63;;
25715;SDS011;13573;50.936;4.328;2022-12-07T05:30:01;27.53;;;15.10;;
25715;SDS011;13573;50.936;4.328;2022-12-07T05:32:27;31.03;;;17.03;;
25715;SDS011;13573;50.936;4.328;2022-12-07T05:34:54;23.03;;;14.53;;
25715;SDS011;13573;50.936;4.328;2022-12-07T05:37:21;32.43;;;17.27;;
25715;SDS011;13573;50.936;4.328;2022-12-07T05:39:47;24.33;;;13.33;;
25715;SDS011;13573;50.936;4.328;2022-12-07T05:42:14;27.40;;;15.30;;
25715;SDS011;13573;50.936;4.328;2022-12-07T05:44:43;27.80;;;15.73;;
25715;SDS011;13573;50.936;4.328;2022-12-07T05:47:11;36.37;;;16.97;;
25715;SDS011;13573;50.936;4.328;2022-12-07T05:49:39;31.33;;;16.87;;
25715;SDS011;13573;50.936;4.328;2022-12-07T05:52:06;32.43;;;14.10;;
25715;SDS011;13573;50.936;4.328;2022-12-07T05:54:33;28.13;;;15.27;;
25715;SDS011;13573;50.936;4.328;2022-12-07T05:56:59;28.23;;;15.03;;
25715;SDS011;13573;50.936;4.328;2022-12-07T05:59:26;25.77;;;13.80;;
25715;SDS011;13573;50.936;4.328;2022-12-07T06:01:58;26.77;;;14.77;;
25715;SDS011;13573;50.936;4.328;2022-12-07T06:04:26;27.53;;;13.90;;
25715;SDS011;13573;50.936;4.328;2022-12-07T06:06:55;26.73;;;14.80;;
25715;SDS011;13573;50.936;4.328;2022-12-07T06:09:22;32.07;;;16.07;;
25715;SDS011;13573;50.936;4.328;2022-12-07T06:11:50;22.40;;;13.53;;
25715;SDS011;13573;50.936;4.328;2022-12-07T06:14:22;20.70;;;12.17;;
25715;SDS011;13573;50.936;4.328;2022-12-07T06:16:49;24.63;;;14.00;;
25715;SDS011;13573;50.936;4.328;2022-12-07T06:19:16;22.40;;;12.73;;
25715;SDS011;13573;50.936;4.328;2022-12-07T06:21:42;32.20;;;17.83;;
25715;SDS011;13573;50.936;4.328;2022-12-07T06:24:10;21.20;;;13.47;;
25715;SDS011;13573;50.936;4.328;2022-12-07T06:26:38;25.90;;;15.37;;
25715;SDS011;13573;50.936;4.328;2022-12-07T06:29:05;27.10;;;15.83;;
25715;SDS011;13573;50.936;4.328;2022-12-07T06:31:32;30.77;;;17.20;;
25715;SDS011;13573;50.936;4.328;2022-12-07T06:33:59;30.43;;;17.57;;
25715;SDS011;13573;50.936;4.328;2022-12-07T06:36:27;32.60;;;16.83;;
25715;SDS011;13573;50.936;4.328;2022-12-07T06:38:53;25.33;;;15.53;;
25715;SDS011;13573;50.936;4.328;2022-12-07T06:41:20;25.10;;;15.50;;
25715;SDS011;13573;50.936;4.328;2022-12-07T06:43:48;27.27;;;16.93;;
25715;SDS011;13573;50.936;4.328;2022-12-07T06:46:15;31.47;;;17.57;;
25715;SDS011;13573;50.936;4.328;2022-12-07T06:48:42;22.83;;;13.73;;
25715;SDS011;13573;50.936;4.328;2022-12-07T06:51:09;33.73;;;18.60;;
25715;SDS011;13573;50.936;4.328;2022-12-07T06:53:36;35.33;;;19.77;;
25715;SDS011;13573;50.936;4.328;2022-12-07T06:56:04;29.87;;;17.93;;
25715;SDS011;13573;50.936;4.328;2022-12-07T06:58:31;27.80;;;16.30;;
25715;SDS011;13573;50.936;4.328;2022-12-07T07:00:57;30.77;;;17.13;;
25715;SDS011;13573;50.936;4.328;2022-12-07T07:03:24;40.63;;;20.67;;
25715;SDS011;13573;50.936;4.328;2022-12-07T07:05:50;28.10;;;16.40;;
25715;SDS011;13573;50.936;4.328;2022-12-07T07:08:18;34.93;;;18.40;;
25715;SDS011;13573;50.936;4.328;2022-12-07T07:10:45;26.87;;;15.63;;
25715;SDS011;13573;50.936;4.328;2022-12-07T07:13:12;32.10;;;18.90;;
25715;SDS011;13573;50.936;4.328;2022-12-07T07:15:38;27.27;;;15.50;;
25715;SDS011;13573;50.936;4.328;2022-12-07T07:18:05;36.17;;;19.23;;
25715;SDS011;13573;50.936;4.328;2022-12-07T07:20:32;28.10;;;16.57;;
25715;SDS011;13573;50.936;4.328;2022-12-07T07:22:59;33.77;;;18.43;;
25715;SDS011;13573;50.936;4.328;2022-12-07T07:25:25;24.13;;;15.10;;
25715;SDS011;13573;50.936;4.328;2022-12-07T07:27:52;30.93;;;15.67;;
25715;SDS011;13573;50.936;4.328;2022-12-07T07:30:20;38.27;;;18.87;;
25715;SDS011;13573;50.936;4.328;2022-12-07T07:32:47;38.27;;;20.70;;
25715;SDS011;13573;50.936;4.328;2022-12-07T07:35:13;31.87;;;18.43;;
25715;SDS011;13573;50.936;4.328;2022-12-07T07:37:40;36.17;;;18.43;;
25715;SDS011;13573;50.936;4.328;2022-12-07T07:40:07;26.53;;;15.10;;
25715;SDS011;13573;50.936;4.328;2022-12-07T07:42:34;28.60;;;16.20;;
25715;SDS011;13573;50.936;4.328;2022-12-07T07:45:01;31.40;;;17.97;;
25715;SDS011;13573;50.936;4.328;2022-12-07T07:47:28;29.10;;;16.87;;
25715;SDS011;13573;50.936;4.328;2022-12-07T07:49:55;30.17;;;16.70;;
25715;SDS011;13573;50.936;4.328;2022-12-07T07:52:21;31.47;;;16.97;;
25715;SDS011;13573;50.936;4.328;2022-12-07T07:54:48;33.13;;;19.10;;
25715;SDS011;13573;50.936;4.328;2022-12-07T07:57:16;26.40;;;14.90;;
25715;SDS011;13573;50.936;4.328;2022-12-07T07:59:42;29.90;;;17.63;;
25715;SDS011;13573;50.936;4.328;2022-12-07T08:02:14;23.27;;;14.17;;
25715;SDS011;13573;50.936;4.328;2022-12-07T08:04:40;22.37;;;13.50;;
25715;SDS011;13573;50.936;4.328;2022-12-07T08:07:07;23.03;;;13.87;;
25715;SDS011;13573;50.936;4.328;2022-12-07T08:09:34;23.17;;;13.53;;
25715;SDS011;13573;50.936;4.328;2022-12-07T08:12:00;25.63;;;15.10;;
25715;SDS011;13573;50.936;4.328;2022-12-07T08:14:27;24.83;;;13.63;;
25715;SDS011;13573;50.936;4.328;2022-12-07T08:16:54;20.73;;;12.43;;
25715;SDS011;13573;50.936;4.328;2022-12-07T08:19:21;29.50;;;15.57;;
25715;SDS011;13573;50.936;4.328;2022-12-07T08:21:48;18.30;;;10.83;;
25715;SDS011;13573;50.936;4.328;2022-12-07T08:24:15;15.83;;;9.10;;
25715;SDS011;13573;50.936;4.328;2022-12-07T08:26:42;15.87;;;8.20;;
25715;SDS011;13573;50.936;4.328;2022-12-07T08:29:09;11.03;;;7.27;;
25715;SDS011;13573;50.936;4.328;2022-12-07T08:31:35;11.90;;;7.10;;
25715;SDS011;13573;50.936;4.328;2022-12-07T08:34:02;14.47;;;7.13;;
25715;SDS011;13573;50.936;4.328;2022-12-07T08:36:29;13.63;;;7.10;;
25715;SDS011;13573;50.936;4.328;2022-12-07T08:38:55;12.30;;;6.47;;
25715;SDS011;13573;50.936;4.328;2022-12-07T08:41:22;11.40;;;6.03;;
25715;SDS011;13573;50.936;4.328;2022-12-07T08:43:50;8.90;;;5.77;;
25715;SDS011;13573;50.936;4.328;2022-12-07T08:46:19;16.07;;;6.67;;
25715;SDS011;13573;50.936;4.328;2022-12-07T08:48:51;13.47;;;6.67;;
25715;SDS011;13573;50.936;4.328;2022-12-07T08:51:18;17.07;;;7.47;;
25715;SDS011;13573;50.936;4.328;2022-12-07T08:53:46;13.27;;;6.93;;
25715;SDS011;13573;50.936;4.328;2022-12-07T08:56:12;12.50;;;8.27;;
25715;SDS011;13573;50.936;4.328;2022-12-07T08:58:39;16.93;;;7.83;;
25715;SDS011;13573;50.936;4.328;2022-12-07T09:01:06;14.10;;;8.40;;
25715;SDS011;13573;50.936;4.328;2022-12-07T09:03:33;12.53;;;7.57;;
25715;SDS011;13573;50.936;4.328;2022-12-07T09:06:00;16.43;;;9.67;;
25715;SDS011;13573;50.936;4.328;2022-12-07T09:08:29;17.20;;;8.70;;
25715;SDS011;13573;50.936;4.328;2022-12-07T09:10:56;15.70;;;8.27;;
25715;SDS011;13573;50.936;4.328;2022-12-07T09:13:23;13.13;;;8.30;;
25715;SDS011;13573;50.936;4.328;2022-12-07T09:15:50;14.90;;;8.57;;
25715;SDS011;13573;50.936;4.328;2022-12-07T09:18:16;19.87;;;9.23;;
25715;SDS011;13573;50.936;4.328;2022-12-07T09:20:43;17.70;;;8.97;;
25715;SDS011;13573;50.936;4.328;2022-12-07T09:23:09;15.83;;;8.73;;
25715;SDS011;13573;50.936;4.328;2022-12-07T09:25:37;18.50;;;9.00;;
25715;SDS011;13573;50.936;4.328;2022-12-07T09:28:03;20.23;;;10.23;;
25715;SDS011;13573;50.936;4.328;2022-12-07T09:30:30;12.27;;;7.57;;
25715;SDS011;13573;50.936;4.328;2022-12-07T09:32:56;16.57;;;9.07;;
25715;SDS011;13573;50.936;4.328;2022-12-07T09:35:24;12.17;;;7.47;;
25715;SDS011;13573;50.936;4.328;2022-12-07T09:37:51;15.30;;;7.83;;
25715;SDS011;13573;50.936;4.328;2022-12-07T09:40:20;15.37;;;7.37;;
25715;SDS011;13573;50.936;4.328;2022-12-07T09:42:48;12.87;;;6.67;;
25715;SDS011;13573;50.936;4.328;2022-12-07T09:45:19;11.70;;;6.63;;
25715;SDS011;13573;50.936;4.328;2022-12-07T09:47:45;12.53;;;6.10;;
25715;SDS011;13573;50.936;4.328;2022-12-07T09:50:13;10.60;;;6.30;;
25715;SDS011;13573;50.936;4.328;2022-12-07T09:52:40;16.70;;;7.73;;
25715;SDS011;13573;50.936;4.328;2022-12-07T09:55:10;15.97;;;7.47;;
25715;SDS011;13573;50.936;4.328;2022-12-07T09:57:39;18.97;;;7.33;;
25715;SDS011;13573;50.936;4.328;2022-12-07T10:00:09;15.33;;;7.07;;
25715;SDS011;13573;50.936;4.328;2022-12-07T10:02:36;17.90;;;7.93;;
25715;SDS011;13573;50.936;4.328;2022-12-07T10:05:06;14.33;;;6.73;;
25715;SDS011;13573;50.936;4.328;2022-12-07T10:07:33;13.70;;;6.27;;
25715;SDS011;13573;50.936;4.328;2022-12-07T10:10:01;11.50;;;6.23;;
25715;SDS011;13573;50.936;4.328;2022-12-07T10:12:28;12.50;;;6.67;;
25715;SDS011;13573;50.936;4.328;2022-12-07T10:14:59;17.80;;;7.40;;
25715;SDS011;13573;50.936;4.328;2022-12-07T10:17:31;19.40;;;7.03;;
25715;SDS011;13573;50.936;4.328;2022-12-07T10:22:32;11.93;;;6.00;;
25715;SDS011;13573;50.936;4.328;2022-12-07T10:25:07;12.40;;;7.03;;
25715;SDS011;13573;50.936;4.328;2022-12-07T10:27:30;13.77;;;7.40;;
25715;SDS011;13573;50.936;4.328;2022-12-07T10:29:58;16.10;;;7.40;;
25715;SDS011;13573;50.936;4.328;2022-12-07T10:32:31;10.47;;;7.20;;
25715;SDS011;13573;50.936;4.328;2022-12-07T10:37:31;15.33;;;8.20;;
25715;SDS011;13573;50.936;4.328;2022-12-07T10:39:59;12.67;;;7.07;;
25715;SDS011;13573;50.936;4.328;2022-12-07T10:42:26;11.20;;;6.37;;
25715;SDS011;13573;50.936;4.328;2022-12-07T10:47:44;10.17;;;5.93;;
25715;SDS011;13573;50.936;4.328;2022-12-07T10:52:55;9.30;;;4.87;;
25715;SDS011;13573;50.936;4.328;2022-12-07T10:58:43;12.33;;;5.30;;
25715;SDS011;13573;50.936;4.328;2022-12-07T11:00:55;9.57;;;5.30;;
25715;SDS011;13573;50.936;4.328;2022-12-07T11:03:30;8.57;;;4.80;;
25715;SDS011;13573;50.936;4.328;2022-12-07T11:17:49;7.20;;;3.50;;
25715;SDS011;13573;50.936;4.328;2022-12-07T11:22:51;9.03;;;4.10;;
25715;SDS011;13573;50.936;4.328;2022-12-07T11:25:23;12.73;;;3.43;;
25715;SDS011;13573;50.936;4.328;2022-12-07T11:27:54;6.80;;;3.20;;
25715;SDS011;13573;50.936;4.328;2022-12-07T11:51:04;9.23;;;2.87;;
25715;SDS011;13573;50.936;4.328;2022-12-07T11:53:38;6.97;;;2.97;;
25715;SDS011;13573;50.936;4.328;2022-12-07T11:56:14;7.50;;;2.80;;
25715;SDS011;13573;50.936;4.328;2022-12-07T11:58:48;10.57;;;2.80;;
25715;SDS011;13573;50.936;4.328;2022-12-07T12:03:53;6.40;;;3.00;;
25715;SDS011;13573;50.936;4.328;2022-12-07T12:06:23;5.53;;;2.80;;
25715;SDS011;13573;50.936;4.328;2022-12-07T12:08:55;5.33;;;2.30;;
25715;SDS011;13573;50.936;4.328;2022-12-07T12:16:46;6.20;;;2.50;;
25715;SDS011;13573;50.936;4.328;2022-12-07T12:21:46;4.67;;;2.30;;
25715;SDS011;13573;50.936;4.328;2022-12-07T12:24:15;6.27;;;2.30;;
25715;SDS011;13573;50.936;4.328;2022-12-07T12:26:49;9.27;;;2.40;;
25715;SDS011;13573;50.936;4.328;2022-12-07T12:29:21;7.70;;;2.23;;
25715;SDS011;13573;50.936;4.328;2022-12-07T12:32:04;4.93;;;2.30;;
25715;SDS011;13573;50.936;4.328;2022-12-07T12:37:40;3.83;;;1.40;;
25715;SDS011;13573;50.936;4.328;2022-12-07T12:42:57;4.83;;;1.80;;
25715;SDS011;13573;50.936;4.328;2022-12-07T12:45:26;4.17;;;1.77;;
25715;SDS011;13573;50.936;4.328;2022-12-07T12:47:58;4.53;;;1.57;;
25715;SDS011;13573;50.936;4.328;2022-12-07T12:50:28;4.87;;;1.70;;
25715;SDS011;13573;50.936;4.328;2022-12-07T12:52:57;4.07;;;1.77;;
25715;SDS011;13573;50.936;4.328;2022-12-07T12:58:28;3.47;;;1.60;;
25715;SDS011;13573;50.936;4.328;2022-12-07T13:03:39;8.97;;;1.80;;
25715;SDS011;13573;50.936;4.328;2022-12-07T13:08:45;6.47;;;1.73;;
25715;SDS011;13573;50.936;4.328;2022-12-07T13:11:17;6.70;;;1.87;;
25715;SDS011;13573;50.936;4.328;2022-12-07T13:13:47;4.13;;;2.10;;
25715;SDS011;13573;50.936;4.328;2022-12-07T13:18:58;7.00;;;2.07;;
25715;SDS011;13573;50.936;4.328;2022-12-07T13:21:41;6.93;;;2.30;;
25715;SDS011;13573;50.936;4.328;2022-12-07T13:24:09;5.57;;;1.70;;
25715;SDS011;13573;50.936;4.328;2022-12-07T13:26:41;4.80;;;2.00;;
25715;SDS011;13573;50.936;4.328;2022-12-07T13:29:13;6.10;;;2.67;;
25715;SDS011;13573;50.936;4.328;2022-12-07T13:31:44;8.23;;;2.37;;
25715;SDS011;13573;50.936;4.328;2022-12-07T13:37:12;6.27;;;2.13;;
25715;SDS011;13573;50.936;4.328;2022-12-07T13:39:45;6.63;;;2.17;;
25715;SDS011;13573;50.936;4.328;2022-12-07T13:44:45;5.87;;;2.00;;
25715;SDS011;13573;50.936;4.328;2022-12-07T13:47:17;7.37;;;2.30;;
25715;SDS011;13573;50.936;4.328;2022-12-07T13:49:48;8.53;;;2.67;;
25715;SDS011;13573;50.936;4.328;2022-12-07T13:52:19;4.93;;;1.90;;
25715;SDS011;13573;50.936;4.328;2022-12-07T13:54:54;4.30;;;1.77;;
25715;SDS011;13573;50.936;4.328;2022-12-07T13:57:23;3.90;;;2.10;;
25715;SDS011;13573;50.936;4.328;2022-12-07T13:59:52;3.57;;;2.83;;
25715;SDS011;13573;50.936;4.328;2022-12-07T14:02:21;5.17;;;2.73;;
25715;SDS011;13573;50.936;4.328;2022-12-07T14:05:05;7.77;;;2.73;;
25715;SDS011;13573;50.936;4.328;2022-12-07T14:07:28;4.77;;;3.30;;
25715;SDS011;13573;50.936;4.328;2022-12-07T14:09:55;6.23;;;3.00;;
25715;SDS011;13573;50.936;4.328;2022-12-07T14:12:24;7.03;;;3.17;;
25715;SDS011;13573;50.936;4.328;2022-12-07T14:14:52;8.23;;;3.40;;
25715;SDS011;13573;50.936;4.328;2022-12-07T14:17:19;7.27;;;3.27;;
25715;SDS011;13573;50.936;4.328;2022-12-07T14:19:52;5.13;;;3.80;;
25715;SDS011;13573;50.936;4.328;2022-12-07T14:22:23;7.60;;;3.37;;
25715;SDS011;13573;50.936;4.328;2022-12-07T14:24:49;7.00;;;3.40;;
25715;SDS011;13573;50.936;4.328;2022-12-07T14:27:18;5.67;;;3.00;;
25715;SDS011;13573;50.936;4.328;2022-12-07T14:29:45;4.83;;;3.30;;
25715;SDS011;13573;50.936;4.328;2022-12-07T14:32:18;4.80;;;3.30;;
25715;SDS011;13573;50.936;4.328;2022-12-07T14:37:23;4.77;;;3.20;;
25715;SDS011;13573;50.936;4.328;2022-12-07T14:39:50;7.17;;;3.73;;
25715;SDS011;13573;50.936;4.328;2022-12-07T14:42:16;7.47;;;4.10;;
25715;SDS011;13573;50.936;4.328;2022-12-07T14:44:44;7.00;;;4.20;;
25715;SDS011;13573;50.936;4.328;2022-12-07T14:47:10;6.47;;;3.70;;
25715;SDS011;13573;50.936;4.328;2022-12-07T14:49:37;9.13;;;4.67;;
25715;SDS011;13573;50.936;4.328;2022-12-07T14:52:04;7.53;;;4.80;;
25715;SDS011;13573;50.936;4.328;2022-12-07T14:54:32;10.87;;;4.97;;
25715;SDS011;13573;50.936;4.328;2022-12-07T14:56:59;10.67;;;5.53;;
25715;SDS011;13573;50.936;4.328;2022-12-07T14:59:26;9.63;;;4.57;;
25715;SDS011;13573;50.936;4.328;2022-12-07T15:01:52;8.63;;;4.47;;
25715;SDS011;13573;50.936;4.328;2022-12-07T15:04:19;7.13;;;4.07;;
25715;SDS011;13573;50.936;4.328;2022-12-07T15:09:22;7.17;;;4.10;;
25715;SDS011;13573;50.936;4.328;2022-12-07T15:11:50;7.17;;;3.77;;
25715;SDS011;13573;50.936;4.328;2022-12-07T15:14:16;7.93;;;4.20;;
25715;SDS011;13573;50.936;4.328;2022-12-07T15:16:43;10.20;;;4.60;;
25715;SDS011;13573;50.936;4.328;2022-12-07T15:19:10;8.43;;;4.93;;
25715;SDS011;13573;50.936;4.328;2022-12-07T15:21:40;10.20;;;5.33;;
25715;SDS011;13573;50.936;4.328;2022-12-07T15:24:09;11.20;;;5.70;;
25715;SDS011;13573;50.936;4.328;2022-12-07T15:26:36;9.27;;;4.90;;
25715;SDS011;13573;50.936;4.328;2022-12-07T15:29:03;8.03;;;4.37;;
25715;SDS011;13573;50.936;4.328;2022-12-07T15:31:30;9.23;;;3.40;;
25715;SDS011;13573;50.936;4.328;2022-12-07T15:33:57;9.20;;;4.10;;
25715;SDS011;13573;50.936;4.328;2022-12-07T15:36:25;12.83;;;4.60;;
25715;SDS011;13573;50.936;4.328;2022-12-07T15:38:53;6.33;;;3.73;;
25715;SDS011;13573;50.936;4.328;2022-12-07T15:41:21;6.67;;;4.20;;
25715;SDS011;13573;50.936;4.328;2022-12-07T15:43:47;9.73;;;4.80;;
25715;SDS011;13573;50.936;4.328;2022-12-07T15:46:19;10.93;;;5.10;;
25715;SDS011;13573;50.936;4.328;2022-12-07T15:48:46;7.43;;;4.60;;
25715;SDS011;13573;50.936;4.328;2022-12-07T15:51:13;11.77;;;5.77;;
25715;SDS011;13573;50.936;4.328;2022-12-07T15:53:39;11.07;;;5.67;;
25715;SDS011;13573;50.936;4.328;2022-12-07T15:56:06;10.37;;;5.70;;
25715;SDS011;13573;50.936;4.328;2022-12-07T15:58:34;12.23;;;4.73;;
25715;SDS011;13573;50.936;4.328;2022-12-07T16:01:00;10.03;;;5.20;;
25715;SDS011;13573;50.936;4.328;2022-12-07T16:03:35;9.23;;;4.77;;
25715;SDS011;13573;50.936;4.328;2022-12-07T16:06:01;7.53;;;4.77;;
25715;SDS011;13573;50.936;4.328;2022-12-07T16:08:28;10.27;;;5.40;;